createdAt,value
2023-04-12T00:02:16.376Z,1.50
2023-04-12T00:04:42.978Z,1.13
2023-04-12T00:07:10.101Z,1.70
2023-04-12T00:09:37.854Z,1.50
2023-04-12T00:12:04.744Z,1.50
2023-04-12T00:14:31.192Z,1.13
2023-04-12T00:16:57.660Z,1.40
2023-04-12T00:19:27.508Z,1.43
2023-04-12T00:21:54.046Z,1.37
2023-04-12T00:24:20.513Z,1.33
2023-04-12T00:26:46.962Z,1.40
2023-04-12T00:29:13.464Z,1.30
2023-04-12T00:31:41.056Z,1.50
2023-04-12T00:34:07.609Z,1.30
2023-04-12T00:36:34.199Z,1.53
2023-04-12T00:39:00.760Z,1.23
2023-04-12T00:41:29.418Z,1.40
2023-04-12T00:43:56.168Z,1.73
2023-04-12T00:46:23.173Z,1.60
2023-04-12T00:48:51.589Z,1.80
2023-04-12T00:51:22.275Z,1.70
2023-04-12T00:53:49.117Z,1.60
2023-04-12T00:56:15.635Z,1.40
2023-04-12T00:58:42.301Z,1.47
2023-04-12T01:01:10.450Z,1.50
2023-04-12T01:03:43.180Z,1.73
2023-04-12T01:06:27.026Z,1.73
2023-04-12T01:08:57.952Z,1.60
2023-04-12T01:11:56.750Z,1.40
2023-04-12T01:14:35.444Z,1.63
2023-04-12T01:17:07.195Z,1.63
2023-04-12T01:19:46.851Z,1.30
2023-04-12T01:22:38.372Z,1.67
2023-04-12T01:25:24.267Z,2.00
2023-04-12T01:27:54.346Z,1.50
2023-04-12T01:30:21.393Z,1.50
2023-04-12T01:32:53.440Z,1.60
2023-04-12T01:35:22.622Z,1.50
2023-04-12T01:37:49.460Z,1.70
2023-04-12T01:40:18.572Z,1.37
2023-04-12T01:42:45.584Z,1.40
2023-04-12T01:45:12.210Z,1.90
2023-04-12T01:47:39.486Z,1.70
2023-04-12T01:50:25.700Z,1.43
2023-04-12T01:53:18.348Z,1.60
2023-04-12T01:55:48.373Z,1.40
2023-04-12T01:58:21.977Z,1.43
2023-04-12T02:00:49.926Z,1.43
2023-04-12T02:03:17.587Z,1.30
2023-04-12T02:05:44.292Z,1.40
2023-04-12T02:08:11.931Z,1.40
2023-04-12T02:10:40.433Z,1.30
2023-04-12T02:13:06.959Z,1.40
2023-04-12T02:15:34.160Z,1.30
2023-04-12T02:18:01.599Z,1.10
2023-04-12T02:20:28.351Z,1.47
2023-04-12T02:22:55.095Z,1.30
2023-04-12T02:25:21.667Z,1.50
2023-04-12T02:27:48.947Z,1.17
2023-04-12T02:30:16.013Z,1.40
2023-04-12T02:32:45.904Z,1.10
2023-04-12T02:35:24.976Z,1.43
2023-04-12T02:37:57.838Z,1.40
2023-04-12T02:40:28.370Z,1.60
2023-04-12T02:42:55.937Z,1.50
2023-04-12T02:45:24.632Z,1.30
2023-04-12T02:47:52.257Z,1.23
2023-04-12T02:50:23.162Z,1.37
2023-04-12T02:52:57.327Z,1.07
2023-04-12T02:55:23.818Z,1.37
2023-04-12T02:57:50.351Z,1.30
2023-04-12T03:00:17.970Z,1.23
2023-04-12T03:02:50.772Z,1.30
2023-04-12T03:05:22.444Z,1.30
2023-04-12T03:07:50.466Z,1.30
2023-04-12T03:10:21.321Z,1.33
2023-04-12T03:12:54.662Z,1.80
2023-04-12T03:15:23.491Z,1.37
2023-04-12T03:17:52.048Z,1.70
2023-04-12T03:20:24.406Z,1.57
2023-04-12T03:22:59.276Z,1.60
2023-04-12T03:25:27.666Z,1.47
2023-04-12T03:27:58.780Z,1.53
2023-04-12T03:30:37.911Z,1.20
2023-04-12T03:33:04.494Z,1.20
2023-04-12T03:35:31.530Z,1.37
2023-04-12T03:37:58.895Z,1.13
2023-04-12T03:40:25.841Z,1.50
2023-04-12T03:42:58.474Z,1.30
2023-04-12T03:45:26.562Z,1.23
2023-04-12T03:47:55.755Z,1.30
2023-04-12T03:50:22.646Z,1.23
2023-04-12T03:52:55.671Z,1.03
2023-04-12T03:55:27.609Z,1.00
2023-04-12T03:57:56.546Z,0.87
2023-04-12T04:00:26.786Z,1.23
2023-04-12T04:03:07.781Z,1.20
2023-04-12T04:05:42.118Z,1.10
2023-04-12T04:08:09.078Z,1.20
2023-04-12T04:10:52.142Z,1.20
2023-04-12T04:13:20.914Z,1.17
2023-04-12T04:15:52.156Z,1.40
2023-04-12T04:18:18.739Z,0.97
2023-04-12T04:20:46.361Z,1.13
2023-04-12T04:23:13.280Z,1.10
2023-04-12T04:25:41.801Z,1.43
2023-04-12T04:28:11.321Z,1.10
2023-04-12T04:30:40.643Z,1.10
2023-04-12T04:33:18.609Z,1.27
2023-04-12T04:35:45.542Z,1.30
2023-04-12T04:38:26.181Z,1.37
2023-04-12T04:41:03.049Z,1.50
2023-04-12T04:43:46.694Z,1.07
2023-04-12T04:46:25.680Z,1.03
2023-04-12T04:48:55.200Z,0.90
2023-04-12T04:51:21.724Z,0.97
2023-04-12T04:53:48.674Z,1.30
2023-04-12T04:56:17.202Z,0.97
2023-04-12T04:58:46.395Z,0.90
2023-04-12T05:01:13.564Z,0.90
2023-04-12T05:03:41.052Z,1.07
2023-04-12T05:06:08.861Z,0.90
2023-04-12T05:08:37.605Z,1.10
2023-04-12T05:11:04.968Z,1.30
2023-04-12T05:13:31.483Z,1.03
2023-04-12T05:15:58.803Z,0.90
2023-04-12T05:18:25.567Z,1.00
2023-04-12T05:20:53.101Z,1.03
2023-04-12T05:23:19.886Z,1.00
2023-04-12T05:25:48.073Z,1.17
2023-04-12T05:28:16.690Z,0.97
2023-04-12T05:30:44.754Z,1.40
2023-04-12T05:33:14.278Z,1.10
2023-04-12T05:35:44.946Z,1.00
2023-04-12T05:38:11.432Z,0.90
2023-04-12T05:40:38.651Z,1.10
2023-04-12T05:43:08.528Z,1.00
2023-04-12T05:45:35.400Z,1.27
2023-04-12T05:48:02.003Z,1.20
2023-04-12T05:50:29.507Z,1.30
2023-04-12T05:52:56.122Z,1.70
2023-04-12T05:55:29.413Z,2.27
2023-04-12T05:57:55.965Z,1.67
2023-04-12T06:00:23.399Z,1.40
2023-04-12T06:02:50.684Z,1.30
2023-04-12T06:05:18.125Z,1.30
2023-04-12T06:07:49.128Z,1.20
2023-04-12T06:10:17.557Z,1.30
2023-04-12T06:12:47.701Z,1.40
2023-04-12T06:15:14.731Z,1.40
2023-04-12T06:17:41.702Z,1.60
2023-04-12T06:20:09.662Z,1.60
2023-04-12T06:22:38.186Z,1.27
2023-04-12T06:25:06.228Z,4.03
2023-04-12T06:27:32.890Z,12.70
2023-04-12T06:29:59.884Z,13.70
2023-04-12T06:32:27.012Z,4.47
2023-04-12T06:34:54.608Z,1.43
2023-04-12T06:37:21.870Z,1.63
2023-04-12T06:39:48.406Z,1.60
2023-04-12T06:42:15.764Z,2.27
2023-04-12T06:44:42.299Z,2.13
2023-04-12T06:47:09.428Z,1.70
2023-04-12T06:49:36.096Z,2.00
2023-04-12T06:52:02.580Z,1.90
2023-04-12T06:54:29.178Z,1.80
2023-04-12T06:56:57.374Z,1.87
2023-04-12T06:59:23.947Z,2.20
2023-04-12T07:01:50.539Z,2.67
2023-04-12T07:04:17.168Z,1.67
2023-04-12T07:06:43.806Z,2.07
2023-04-12T07:09:10.338Z,1.50
2023-04-12T07:11:36.836Z,1.77
2023-04-12T07:14:03.314Z,1.93
2023-04-12T07:16:31.517Z,2.23
2023-04-12T07:19:00.821Z,1.50
2023-04-12T07:21:27.734Z,1.27
2023-04-12T07:23:55.751Z,1.67
2023-04-12T07:26:23.006Z,1.77
2023-04-12T07:28:49.598Z,1.90
2023-04-12T07:31:16.129Z,1.77
2023-04-12T07:33:43.269Z,1.70
2023-04-12T07:36:11.076Z,1.83
2023-04-12T07:38:37.619Z,2.80
2023-04-12T07:41:04.498Z,5.83
2023-04-12T07:43:31.184Z,2.53
2023-04-12T07:45:58.719Z,3.80
2023-04-12T07:48:25.452Z,3.10
2023-04-12T07:50:51.995Z,2.77
2023-04-12T07:53:28.913Z,2.30
2023-04-12T07:55:56.053Z,1.93
2023-04-12T07:58:24.197Z,2.23
2023-04-12T08:00:51.217Z,2.10
2023-04-12T08:03:18.680Z,2.23
2023-04-12T08:05:45.613Z,2.43
2023-04-12T08:08:22.770Z,2.73
2023-04-12T08:10:51.051Z,2.40
2023-04-12T08:13:17.934Z,1.80
2023-04-12T08:15:44.580Z,1.73
2023-04-12T08:18:14.168Z,1.83
2023-04-12T08:20:47.252Z,2.13
2023-04-12T08:23:16.478Z,1.60
2023-04-12T08:25:42.928Z,1.80
2023-04-12T08:28:09.389Z,1.87
2023-04-12T08:30:36.701Z,1.80
2023-04-12T08:33:03.249Z,1.70
2023-04-12T08:35:29.863Z,1.87
2023-04-12T08:37:56.769Z,1.73
2023-04-12T08:40:23.387Z,1.73
2023-04-12T08:42:52.796Z,1.93
2023-04-12T08:45:20.302Z,2.10
2023-04-12T08:47:46.797Z,2.03
2023-04-12T08:50:14.175Z,1.80
2023-04-12T08:52:41.825Z,1.93
2023-04-12T08:55:10.127Z,2.30
2023-04-12T08:57:39.705Z,5.13
2023-04-12T09:00:08.355Z,5.50
2023-04-12T09:02:41.388Z,2.83
2023-04-12T09:05:09.607Z,2.60
2023-04-12T09:07:36.226Z,2.93
2023-04-12T09:10:02.767Z,2.57
2023-04-12T09:12:29.278Z,2.40
2023-04-12T09:15:13.404Z,2.27
2023-04-12T09:17:41.663Z,2.47
2023-04-12T09:20:17.254Z,3.40
2023-04-12T09:22:46.143Z,2.00
2023-04-12T09:25:14.135Z,2.97
2023-04-12T09:27:51.392Z,1.70
2023-04-12T09:30:19.709Z,2.17
2023-04-12T09:32:49.297Z,2.20
2023-04-12T09:35:16.200Z,2.17
2023-04-12T09:37:42.985Z,1.80
2023-04-12T09:40:10.747Z,2.20
2023-04-12T09:42:53.740Z,2.27
2023-04-12T09:45:23.904Z,1.80
2023-04-12T09:47:51.088Z,1.70
2023-04-12T09:50:26.495Z,1.87
2023-04-12T09:52:53.927Z,1.70
2023-04-12T09:55:25.651Z,1.63
2023-04-12T09:57:53.861Z,1.77
2023-04-12T10:00:23.208Z,1.73
2023-04-12T10:02:52.511Z,2.20
2023-04-12T10:05:22.062Z,1.97
2023-04-12T10:07:50.148Z,2.57
2023-04-12T10:10:19.072Z,3.40
2023-04-12T10:12:47.657Z,2.30
2023-04-12T10:15:17.529Z,1.90
2023-04-12T10:17:54.397Z,1.30
2023-04-12T10:20:24.701Z,1.20
2023-04-12T10:22:53.341Z,1.50
2023-04-12T10:25:25.577Z,1.20
2023-04-12T10:27:53.091Z,1.30
2023-04-12T10:30:24.209Z,1.20
2023-04-12T10:33:12.695Z,1.23
2023-04-12T10:36:10.675Z,1.17
2023-04-12T10:38:47.784Z,1.10
2023-04-12T10:41:21.282Z,1.10
2023-04-12T10:43:49.532Z,1.30
2023-04-12T10:46:40.183Z,1.20
2023-04-12T10:49:11.040Z,1.10
2023-04-12T10:51:37.922Z,1.40
2023-04-12T10:54:08.184Z,1.43
2023-04-12T10:56:37.615Z,1.23
2023-04-12T10:59:16.705Z,1.57
2023-04-12T11:02:07.381Z,1.00
2023-04-12T11:04:35.192Z,1.20
2023-04-12T11:07:11.973Z,1.60
2023-04-12T11:09:42.684Z,3.60
2023-04-12T11:12:15.985Z,1.93
2023-04-12T11:14:47.675Z,1.63
2023-04-12T11:17:14.666Z,1.10
2023-04-12T11:19:46.140Z,2.00
2023-04-12T11:22:15.008Z,3.07
2023-04-12T11:24:48.012Z,3.10
2023-04-12T11:27:16.515Z,1.87
2023-04-12T11:29:44.021Z,1.63
2023-04-12T11:32:15.522Z,1.40
2023-04-12T11:34:47.415Z,1.40
2023-04-12T11:37:14.529Z,1.80
2023-04-12T11:39:46.086Z,1.60
2023-04-12T11:42:15.660Z,1.23
2023-04-12T11:44:56.325Z,1.60
2023-04-12T11:47:26.773Z,1.23
2023-04-12T11:49:55.676Z,1.70
2023-04-12T11:52:29.107Z,1.23
2023-04-12T11:54:58.729Z,1.23
2023-04-12T11:57:25.644Z,1.70
2023-04-12T11:59:52.704Z,1.40
2023-04-12T12:02:22.751Z,1.77
2023-04-12T12:04:50.860Z,1.60
2023-04-12T12:07:18.165Z,1.90
2023-04-12T12:09:46.501Z,1.50
2023-04-12T12:12:14.467Z,2.10
2023-04-12T12:14:44.325Z,1.37
2023-04-12T12:17:15.906Z,1.40
2023-04-12T12:19:45.377Z,2.00
2023-04-12T12:22:22.265Z,1.50
2023-04-12T12:24:55.609Z,1.93
2023-04-12T12:27:50.838Z,1.27
2023-04-12T12:30:18.857Z,1.17
2023-04-12T12:32:45.436Z,1.23
2023-04-12T12:35:13.941Z,1.10
2023-04-12T12:37:52.287Z,1.10
2023-04-12T12:40:21.603Z,1.30
2023-04-12T12:42:56.557Z,1.07
2023-04-12T12:45:25.071Z,1.20
2023-04-12T12:47:59.850Z,1.13
2023-04-12T12:50:28.271Z,0.50
2023-04-12T12:52:55.662Z,0.70
2023-04-12T12:55:23.690Z,0.30
2023-04-12T12:58:06.642Z,0.30
2023-04-12T13:00:34.601Z,1.27
2023-04-12T13:03:01.552Z,4.77
2023-04-12T13:05:28.538Z,1.10
2023-04-12T13:07:55.073Z,5.23
2023-04-12T13:10:21.566Z,2.03
2023-04-12T13:12:48.116Z,1.30
2023-04-12T13:15:22.291Z,9.53
2023-04-12T13:17:52.540Z,3.80
2023-04-12T13:20:19.373Z,11.23
2023-04-12T13:22:45.959Z,2.07
2023-04-12T13:25:12.464Z,1.80
2023-04-12T13:27:38.949Z,3.87
2023-04-12T13:30:06.288Z,1.70
2023-04-12T13:32:33.050Z,2.90
2023-04-12T13:34:59.631Z,3.43
2023-04-12T13:37:26.211Z,1.20
2023-04-12T13:39:52.857Z,1.70
2023-04-12T13:42:19.987Z,2.17
2023-04-12T13:44:48.557Z,1.60
2023-04-12T13:47:18.246Z,1.20
2023-04-12T13:49:44.928Z,0.80
2023-04-12T13:52:12.387Z,1.87
2023-04-12T13:54:39.266Z,0.80
2023-04-12T13:57:05.965Z,1.70
2023-04-12T13:59:32.478Z,0.50
2023-04-12T14:02:00.117Z,1.10
2023-04-12T14:04:31.349Z,0.93
2023-04-12T14:06:58.932Z,0.90
2023-04-12T14:09:27.168Z,1.00
2023-04-12T14:11:56.026Z,0.67
2023-04-12T14:14:23.495Z,0.80
2023-04-12T14:16:53.307Z,1.10
2023-04-12T14:19:22.985Z,1.10
2023-04-12T14:21:50.379Z,1.70
2023-04-12T14:24:17.743Z,1.10
2023-04-12T14:26:45.226Z,0.63
2023-04-12T14:29:12.230Z,0.80
2023-04-12T14:31:38.978Z,0.50
2023-04-12T14:34:06.228Z,0.70
2023-04-12T14:36:33.365Z,0.50
2023-04-12T14:39:01.489Z,1.67
2023-04-12T14:41:28.351Z,0.80
2023-04-12T14:43:54.850Z,0.40
2023-04-12T14:46:21.476Z,0.50
2023-04-12T14:48:47.958Z,0.30
2023-04-12T14:51:14.456Z,0.60
2023-04-12T14:53:42.617Z,0.80
2023-04-12T14:56:25.295Z,0.57
2023-04-12T14:58:55.191Z,0.80
2023-04-12T15:01:23.790Z,0.40
2023-04-12T15:03:51.930Z,0.70
2023-04-12T15:06:19.299Z,0.37
2023-04-12T15:08:46.660Z,0.30
2023-04-12T15:11:13.423Z,0.50
2023-04-12T15:13:41.670Z,0.80
2023-04-12T15:16:09.196Z,0.90
2023-04-12T15:18:39.366Z,1.00
2023-04-12T15:21:08.245Z,0.50
2023-04-12T15:23:35.629Z,1.17
2023-04-12T15:26:04.920Z,0.67
2023-04-12T15:28:32.776Z,0.80
2023-04-12T15:30:59.588Z,0.50
2023-04-12T15:33:26.168Z,0.80
2023-04-12T15:35:56.453Z,0.80
2023-04-12T15:38:24.600Z,0.50
2023-04-12T15:40:55.793Z,0.80
2023-04-12T15:43:23.247Z,0.47
2023-04-12T15:45:53.125Z,0.73
2023-04-12T15:48:20.763Z,0.70
2023-04-12T15:50:53.299Z,0.47
2023-04-12T15:53:28.877Z,0.60
2023-04-12T15:56:00.112Z,0.50
2023-04-12T15:58:29.277Z,0.60
2023-04-12T16:00:56.139Z,0.53
2023-04-12T16:03:23.607Z,0.50
2023-04-12T16:05:54.073Z,0.60
2023-04-12T16:08:21.917Z,0.60
2023-04-12T16:10:49.464Z,0.70
2023-04-12T16:13:16.178Z,0.80
2023-04-12T16:15:42.738Z,0.80
2023-04-12T16:18:09.567Z,0.60
2023-04-12T16:20:36.266Z,0.57
2023-04-12T16:23:03.725Z,0.60
2023-04-12T16:25:30.490Z,0.80
2023-04-12T16:27:57.531Z,0.70
2023-04-12T16:30:24.364Z,0.40
2023-04-12T16:32:51.235Z,0.60
2023-04-12T16:35:18.049Z,0.90
2023-04-12T16:37:45.786Z,0.60
2023-04-12T16:40:12.844Z,0.60
2023-04-12T16:42:43.850Z,0.70
2023-04-12T16:45:15.259Z,0.43
2023-04-12T16:47:50.854Z,0.40
2023-04-12T16:50:20.957Z,0.40
2023-04-12T16:52:49.390Z,0.30
2023-04-12T16:55:15.899Z,0.40
2023-04-12T16:57:44.720Z,0.33
2023-04-12T17:00:26.933Z,0.40
2023-04-12T17:02:54.109Z,0.40
2023-04-12T17:05:22.404Z,0.43
2023-04-12T17:07:51.327Z,0.50
2023-04-12T17:10:19.763Z,0.40
2023-04-12T17:12:48.265Z,0.70
2023-04-12T17:15:17.176Z,0.77
2023-04-12T17:17:46.072Z,0.80
2023-04-12T17:20:12.821Z,0.90
2023-04-12T17:22:39.256Z,1.20
2023-04-12T17:25:06.790Z,1.70
2023-04-12T17:27:37.413Z,0.83
2023-04-12T17:30:05.397Z,0.90
2023-04-12T17:32:32.823Z,1.90
2023-04-12T17:34:59.694Z,1.90
2023-04-12T17:37:27.745Z,2.60
2023-04-12T17:39:54.344Z,1.47
2023-04-12T17:42:21.728Z,0.80
2023-04-12T17:44:48.301Z,0.70
2023-04-12T17:47:15.388Z,0.97
2023-04-12T17:49:42.686Z,0.63
2023-04-12T17:52:10.906Z,0.77
2023-04-12T17:54:38.405Z,0.80
2023-04-12T17:57:05.456Z,1.10
2023-04-12T17:59:32.027Z,0.90
2023-04-12T18:02:01.807Z,0.67
2023-04-12T18:04:29.473Z,0.60
2023-04-12T18:06:57.158Z,0.60
2023-04-12T18:09:24.688Z,1.00
2023-04-12T18:11:51.523Z,0.60
2023-04-12T18:14:20.255Z,0.60
2023-04-12T18:16:47.147Z,0.50
2023-04-12T18:19:16.254Z,0.53
2023-04-12T18:21:48.140Z,0.40
2023-04-12T18:24:16.218Z,0.30
2023-04-12T18:26:45.973Z,0.40
2023-04-12T18:29:14.440Z,0.40
2023-04-12T18:31:41.094Z,0.43
2023-04-12T18:34:11.119Z,0.50
2023-04-12T18:36:38.095Z,0.40
2023-04-12T18:39:05.665Z,0.30
2023-04-12T18:41:32.637Z,0.50
2023-04-12T18:43:59.260Z,0.30
2023-04-12T18:46:31.909Z,1.00
2023-04-12T18:48:58.673Z,1.00
2023-04-12T18:51:25.123Z,1.00
2023-04-12T18:53:51.603Z,0.97
2023-04-12T18:56:23.134Z,1.10
2023-04-12T18:58:56.189Z,1.00
2023-04-12T19:01:23.474Z,1.07
2023-04-12T19:03:50.277Z,0.80
2023-04-12T19:06:17.048Z,0.90
2023-04-12T19:08:43.864Z,1.07
2023-04-12T19:11:10.355Z,1.70
2023-04-12T19:13:37.171Z,2.47
2023-04-12T19:16:07.312Z,1.30
2023-04-12T19:18:34.242Z,1.70
2023-04-12T19:21:01.946Z,2.30
2023-04-12T19:23:28.827Z,3.80
2023-04-12T19:25:56.720Z,4.20
2023-04-12T19:28:23.180Z,3.93
2023-04-12T19:30:49.742Z,3.50
2023-04-12T19:33:16.426Z,2.23
2023-04-12T19:35:42.859Z,1.30
2023-04-12T19:38:09.850Z,0.97
2023-04-12T19:40:36.679Z,1.20
2023-04-12T19:43:04.516Z,1.20
2023-04-12T19:45:31.253Z,0.90
2023-04-12T19:47:57.843Z,0.73
2023-04-12T19:50:24.935Z,0.90
2023-04-12T19:52:51.757Z,0.90
2023-04-12T19:55:21.327Z,0.90
2023-04-12T19:57:47.889Z,1.80
2023-04-12T20:00:22.670Z,1.10
2023-04-12T20:02:50.607Z,1.10
2023-04-12T20:05:17.878Z,1.00
2023-04-12T20:07:45.180Z,1.20
2023-04-12T20:10:13.075Z,0.90
2023-04-12T20:12:39.819Z,1.00
2023-04-12T20:15:11.686Z,0.93
2023-04-12T20:17:42.697Z,1.80
2023-04-12T20:20:10.930Z,2.80
2023-04-12T20:22:39.195Z,2.53
2023-04-12T20:25:05.984Z,2.20
2023-04-12T20:27:33.625Z,1.73
2023-04-12T20:30:00.677Z,1.83
2023-04-12T20:32:27.257Z,1.77
2023-04-12T20:34:54.692Z,1.27
2023-04-12T20:37:21.143Z,1.07
2023-04-12T20:39:47.692Z,0.90
2023-04-12T20:42:16.366Z,1.30
2023-04-12T20:44:42.891Z,2.23
2023-04-12T20:47:09.947Z,4.60
2023-04-12T20:49:36.390Z,4.37
2023-04-12T20:52:03.006Z,6.10
2023-04-12T20:54:30.147Z,6.70
2023-04-12T20:56:58.833Z,5.67
2023-04-12T20:59:29.491Z,4.90
2023-04-12T21:01:57.254Z,4.13
2023-04-12T21:04:25.400Z,3.53
2023-04-12T21:06:55.352Z,3.10
2023-04-12T21:09:23.363Z,3.50
2023-04-12T21:11:51.000Z,3.70
2023-04-12T21:14:17.476Z,2.63
2023-04-12T21:16:44.041Z,1.80
2023-04-12T21:19:10.505Z,1.40
2023-04-12T21:21:37.016Z,0.90
2023-04-12T21:24:03.838Z,0.80
2023-04-12T21:26:31.702Z,0.70
2023-04-12T21:28:59.521Z,0.90
2023-04-12T21:31:26.145Z,0.70
2023-04-12T21:33:53.254Z,0.87
2023-04-12T21:36:19.893Z,0.63
2023-04-12T21:38:46.619Z,0.80
2023-04-12T21:41:13.739Z,0.70
2023-04-12T21:43:40.753Z,0.80
2023-04-12T21:46:11.829Z,0.50
2023-04-12T21:48:38.322Z,0.50
2023-04-12T21:51:05.103Z,0.50
2023-04-12T21:53:31.715Z,0.70
2023-04-12T21:55:58.928Z,0.60
2023-04-12T21:58:25.708Z,0.70
2023-04-12T22:00:52.553Z,0.50
2023-04-12T22:03:19.256Z,0.50
2023-04-12T22:05:51.142Z,0.50
2023-04-12T22:08:20.632Z,0.50
2023-04-12T22:10:49.932Z,0.73
2023-04-12T22:13:16.415Z,0.40
2023-04-12T22:15:43.740Z,0.37
2023-04-12T22:18:10.513Z,0.40
2023-04-12T22:20:36.942Z,0.60
2023-04-12T22:23:03.402Z,0.40
2023-04-12T22:25:30.080Z,0.43
2023-04-12T22:27:58.193Z,0.43
2023-04-12T22:30:25.240Z,0.50
2023-04-12T22:32:52.666Z,0.47
2023-04-12T22:35:20.543Z,0.30
2023-04-12T22:37:49.692Z,0.40
2023-04-12T22:40:16.532Z,0.40
2023-04-12T22:42:49.018Z,0.47
2023-04-12T22:45:16.832Z,0.40
2023-04-12T22:47:44.261Z,0.40
2023-04-12T22:50:12.646Z,0.50
2023-04-12T22:52:40.272Z,0.50
2023-04-12T22:55:09.100Z,0.40
2023-04-12T22:57:36.361Z,0.30
2023-04-12T23:00:05.726Z,0.40
2023-04-12T23:02:33.558Z,0.50
2023-04-12T23:05:00.451Z,0.50
2023-04-12T23:07:29.838Z,0.60
2023-04-12T23:09:57.195Z,0.50
2023-04-12T23:12:24.306Z,0.43
2023-04-12T23:14:51.027Z,0.40
2023-04-12T23:17:19.704Z,0.40
2023-04-12T23:19:46.451Z,0.50
2023-04-12T23:22:22.413Z,0.50
2023-04-12T23:24:50.525Z,0.50
2023-04-12T23:27:17.016Z,0.50
2023-04-12T23:29:43.467Z,0.50
2023-04-12T23:32:10.378Z,0.60
2023-04-12T23:34:36.881Z,0.50
2023-04-12T23:37:03.341Z,0.60
2023-04-12T23:39:31.207Z,0.50
2023-04-12T23:41:57.667Z,0.50
2023-04-12T23:44:24.930Z,0.50
2023-04-12T23:46:51.473Z,0.50
2023-04-12T23:49:17.964Z,0.60
2023-04-12T23:51:44.532Z,0.50
2023-04-12T23:54:11.163Z,0.60
2023-04-12T23:56:37.663Z,0.60
2023-04-12T23:59:04.119Z,0.50
